Flight Track Log - Related Links

Times and Time Zones

All times are in EDT time to prevent confusion due to time zone crossing. See the ASQ5848 flight status page for this flight to view local times or setup timezone preferences in your user account.

Time Position Orientation Groundspeed Altitude Reporting Facility
EDT Latitude Longitude Course Direction KTS MPH feet Rate Location/Type
Wed 12:39:55 41.3897 -90.5544 90° East 210 242 4,300  Level Chicago Center
Wed 12:40:57 41.3514 -90.5017 134° Southeast 236 272 6,900 2,758 Climbing Chicago Center
Wed 12:41:59 41.3608 -90.4039 83° East 265 305 10,000 2,710 Climbing Chicago Center
Wed 12:43:01 41.3678 -90.3128 84° East 252 290 12,500 1,776 Climbing Chicago Center
Wed 12:44:04 41.3800 -90.1764 83° East 314 361 13,700 1,104 Climbing Chicago Center
Wed 12:45:00 41.4333 -89.9601 90° East  Level FlightAware Approximate
Wed 12:45:06 41.3908 -90.0467 84° East 351 404 14,800  Level Chicago Center
Wed 12:46:08 41.4033 -89.9075 83° East 373 429 16,000 1,258 Climbing Chicago Center
Wed 12:47:10 41.4150 -89.7644 84° East 384 442 17,400 1,258 Climbing Chicago Center
Wed 12:48:12 41.4275 -89.6214 83° East 388 447 18,600 484 Climbing Chicago Center
Wed 12:49:14 41.4406 -89.4778 83° East 390 449 18,400 -484 Descending Chicago Center
Wed 12:50:16 41.4542 -89.3444 82° East 365 420 17,600 -774 Descending Chicago Center
Wed 12:51:18 41.4686 -89.1858 83° East 360 414 16,800 -823 Descending Chicago Center
Wed 12:52:20 41.4758 -89.0736 85° East 356 410 15,900 -1,403 Descending Chicago Center
Wed 12:53:22 41.4550 -88.9203 100° East 352 405 13,900 -1,839 Descending Chicago Center
Wed 12:54:24 41.4606 -88.7911 87° East 376 433 12,100 -1,306 Descending Chicago Center
Wed 12:55:26 41.5217 -88.6892 51° Northeast 356 410 11,200 -532 Descending Chicago Center
Wed 12:56:28 41.5761 -88.5750 57° Northeast 363 418 11,000 -290 Descending Chicago Center
Wed 12:57:30 41.6261 -88.4669 58° Northeast 348 400 10,600 -677 Descending Chicago Center
Wed 12:58:32 41.6683 -88.3761 58° Northeast 293 337 9,600 -1,065 Descending Chicago Center
Wed 12:59:34 41.7208 -88.2719 56° Northeast 284 327 8,400 -1,065 Descending Chicago Center
Wed 13:00:36 41.7692 -88.1922 51° Northeast 277 319 7,400 -677 Descending Chicago Center
Wed 13:01:38 41.8131 -88.1161 52° Northeast 263 303 7,000 -194 Descending Chicago Center
Wed 13:02:40 41.8578 -88.0364 53° Northeast 264 304 7,000  Level Chicago Center
Wed 13:03:11 41.8833 -87.9833 57° Northeast 272 313 7,000  Level Chicago TRACON
Wed 13:04:11 41.8833 -87.8833 90° East 248 285 7,000  Level Chicago TRACON
Wed 13:05:12 41.8833 -87.8000 90° East 211 243 7,000  Level Chicago TRACON
Wed 13:06:18 41.8833 -87.7167 90° East 214 246 7,000 -300 Level Chicago TRACON
Wed 13:07:12 41.8833 -87.6500 90° East 204 235 6,400 -895 Descending Chicago TRACON
Wed 13:08:12 41.9333 -87.6333 14° North 204 235 5,300 -1,100 Descending Chicago TRACON
Wed 13:09:12 41.9500 -87.7000 289° West 190 219 4,200 -1,100 Descending Chicago TRACON

Login

Don't have an account? Register now (free) for customized features, flight alerts, and more!